New Richmond Regional Airport New Richmond US
ICAO: KRNH
IATA: RNH
Category: Medium
Scheduled Services: No

Elevation: 998 ft
TransAlt. 18000 ft.

Airport Communications:
MINNEAPOLIS APP/DEP:121.2
AWOS 3:120
CTAF/UNICOM:122.975

KRNH Zoom In..

If you have problems with the map follow the link
https://www.worldairports.se/pages/airport.php?
ICAO=KRNH

Runways:

(A) RW 04 length 2050 ft width 75 ft
---- / hdg 42

(B) RW 14 length 5507 ft width 75 ft
---- / hdg 141

(C) RW 22 length 2050 ft width 75 ft
---- / hdg 222

(D) RW 32 length 5507 ft width 75 ft
---- / hdg 321

Location; KRNH
Day. 21 / Time. 19.15 Zulu
* Altimeter: 30.26
* Temperature: -09° c. -15.8°f.
* Wind from: 190° Speed 13 kn with Gusts up to 22 kn.
Dewpoint: -14° c.
Visibility: 10 Statute Miles.
Clouds: Clear (automated report).

KRNH 211915Z AUTO 19013G22KT 10SM CLR M09/M14 A3026 RMK AO2 T10901145


Wind From 190°
Speed 13 kn.

 
 
jpsmedia worldairports.se 2020   terms of use